TimeAEST,TemperatureF,Dew PointF,Humidity,Sea Level PressureIn,VisibilityMPH,Wind Direction,Wind SpeedMPH,Gust SpeedMPH,PrecipitationIn,Events,Conditions,WindDirDegrees,DateUTC
12:00 AM,31,28,83,30.01,,SE,2.3,,,,,130,2013-05-18 14:00:00
12:00 AM,30.2,28.4,93,30.01,6.2,SE,2.3,-,N/A,,Unknown,130,2013-05-18 14:00:00
12:30 AM,30.2,26.6,86,29.98,6.2,SE,5.8,-,N/A,,Unknown,140,2013-05-18 14:30:00
1:00 AM,31,29,88,29.99,,ESE,4.6,,,,,120,2013-05-18 15:00:00
1:00 AM,30.2,28.4,93,29.98,6.2,ESE,4.6,-,N/A,,Unknown,120,2013-05-18 15:00:00
1:30 AM,28.4,26.6,93,29.98,6.2,SSW,3.5,-,N/A,,Unknown,200,2013-05-18 15:30:00
2:00 AM,30.2,28.4,93,29.98,6.2,Calm,Calm,-,N/A,,Unknown,0,2013-05-18 16:00:00
2:30 AM,28.4,26.6,93,29.98,6.2,Calm,Calm,-,N/A,,Unknown,0,2013-05-18 16:30:00
3:00 AM,29,28,92,30.00,,Calm,Calm,,,,,,2013-05-18 17:00:00
3:00 AM,28.4,26.6,93,29.98,6.2,Calm,Calm,-,N/A,,Unknown,0,2013-05-18 17:00:00
3:30 AM,26.6,24.8,93,29.98,6.2,South,3.5,-,N/A,,Unknown,170,2013-05-18 17:30:00
4:00 AM,27,26,93,30.00,,Calm,Calm,,,,,,2013-05-18 18:00:00
4:00 AM,26.6,24.8,93,29.98,6.2,Calm,Calm,-,N/A,,Unknown,0,2013-05-18 18:00:00
4:30 AM,26.6,24.8,93,29.98,6.2,Calm,Calm,-,N/A,,Unknown,0,2013-05-18 18:30:00
4:58 AM,26.6,24.8,93,30.01,3.1,Calm,Calm,-,N/A,,Unknown,0,2013-05-18 18:58:00
5:00 AM,26.6,24.8,93,30.01,-9999.0,Calm,Calm,-,N/A,,Unknown,0,2013-05-18 19:00:00
5:18 AM,26.6,26.6,100,30.01,6.2,ESE,3.5,-,N/A,,Unknown,120,2013-05-18 19:18:00
5:30 AM,26.6,26.6,100,30.01,6.2,Calm,Calm,-,N/A,,Unknown,0,2013-05-18 19:30:00
6:00 AM,26,24,89,30.03,,North,1.2,,,,,0,2013-05-18 20:00:00
6:00 AM,24.8,24.8,100,30.01,6.2,North,1.2,-,N/A,Fog,Patches of Fog,360,2013-05-18 20:00:00
6:30 AM,26.6,24.8,93,30.04,6.2,Calm,Calm,-,N/A,Fog,Patches of Fog,0,2013-05-18 20:30:00
7:00 AM,25,23,91,30.04,,ESE,2.3,,,,,120,2013-05-18 21:00:00
7:00 AM,24.8,23.0,93,30.04,6.2,ESE,2.3,-,N/A,Fog,Patches of Fog,120,2013-05-18 21:00:00
7:18 AM,26.6,24.8,93,30.04,6.2,ESE,2.3,-,N/A,Fog,Patches of Fog,110,2013-05-18 21:18:00
7:31 AM,24.8,24.8,100,30.04,6.2,East,1.2,-,N/A,Fog,Patches of Fog,90,2013-05-18 21:31:00
7:42 AM,26.6,26.6,100,30.04,6.2,North,5.8,-,N/A,,Unknown,350,2013-05-18 21:42:00
7:50 AM,28.4,28.4,100,30.04,6.2,North,4.6,-,N/A,Fog,Patches of Fog,350,2013-05-18 21:50:00
8:00 AM,30.2,28.4,93,30.04,6.2,NNW,2.3,-,N/A,,Partly Cloudy,330,2013-05-18 22:00:00
8:30 AM,32.0,30.2,93,30.04,6.2,SSW,3.5,-,N/A,,Partly Cloudy,210,2013-05-18 22:30:00
9:00 AM,37,34,84,30.07,19,Calm,Calm,,,,Partly Cloudy,,2013-05-18 23:00:00
9:00 AM,37.4,33.8,87,30.04,6.2,Calm,Calm,-,N/A,,Partly Cloudy,0,2013-05-18 23:00:00
9:30 AM,41.0,33.8,76,30.04,6.2,NNW,3.5,-,N/A,,Partly Cloudy,330,2013-05-18 23:30:00
10:00 AM,44,34,59,30.06,,NNW,2.3,,,,,330,2013-05-19 00:00:00
10:00 AM,44.6,33.8,66,30.04,6.2,NNW,2.3,-,N/A,,Partly Cloudy,330,2013-05-19 00:00:00
10:30 AM,51.8,32.0,47,30.04,6.2,West,8.1,-,N/A,,Partly Cloudy,280,2013-05-19 00:30:00
11:00 AM,53.6,30.2,41,30.01,6.2,NW,13.8,-,N/A,,Partly Cloudy,310,2013-05-19 01:00:00
11:30 AM,53.6,32.0,44,30.01,6.2,WNW,11.5,-,N/A,,Partly Cloudy,300,2013-05-19 01:30:00
12:00 PM,57,30,24,30.01,,WNW,11.5,,,,,300,2013-05-19 02:00:00
12:00 PM,57.2,30.2,36,30.01,6.2,WNW,11.5,-,N/A,,Partly Cloudy,300,2013-05-19 02:00:00
12:30 PM,57.2,30.2,36,29.98,6.2,WNW,12.7,-,N/A,,Partly Cloudy,290,2013-05-19 02:30:00
1:00 PM,58,30,23,29.98,,WNW,13.8,,,,,290,2013-05-19 03:00:00
1:00 PM,59.0,30.2,34,29.98,6.2,WNW,13.8,-,N/A,,Partly Cloudy,290,2013-05-19 03:00:00
1:30 PM,62.6,28.4,27,29.95,6.2,WNW,16.1,-,N/A,,Scattered Clouds,300,2013-05-19 03:30:00
2:00 PM,60.8,28.4,29,29.95,6.2,West,15.0,-,N/A,,Partly Cloudy,260,2013-05-19 04:00:00
2:30 PM,59.0,32.0,36,29.95,6.2,WSW,12.7,-,N/A,,Partly Cloudy,250,2013-05-19 04:30:00
3:00 PM,57,34,30,29.98,,WNW,16.1,,,,,290,2013-05-19 05:00:00
3:00 PM,57.2,33.8,41,29.95,6.2,WNW,16.1,-,N/A,,Partly Cloudy,290,2013-05-19 05:00:00
3:30 PM,55.4,33.8,44,29.98,6.2,WNW,18.4,-,N/A,,Partly Cloudy,290,2013-05-19 05:30:00
4:00 PM,54,35,36,29.98,,WNW,17.3,,,,,290,2013-05-19 06:00:00
4:00 PM,53.6,33.8,47,29.98,6.2,WNW,17.3,-,N/A,,Partly Cloudy,290,2013-05-19 06:00:00
4:30 PM,51.8,33.8,50,29.98,6.2,West,15.0,-,N/A,,Partly Cloudy,280,2013-05-19 06:30:00
5:00 PM,50.0,35.6,58,30.01,6.2,WNW,12.7,-,N/A,,Partly Cloudy,290,2013-05-19 07:00:00
5:30 PM,48.2,35.6,62,30.01,6.2,West,10.4,-,N/A,,Partly Cloudy,280,2013-05-19 07:30:00
6:00 PM,48,35,50,30.03,,West,11.5,,,,,270,2013-05-19 08:00:00
6:00 PM,48.2,35.6,62,30.01,6.2,West,11.5,-,N/A,,Partly Cloudy,270,2013-05-19 08:00:00
6:30 PM,48.2,32.0,54,30.01,6.2,WSW,12.7,-,N/A,,Unknown,240,2013-05-19 08:30:00
7:00 PM,41,35,70,30.04,,West,5.8,,,,,280,2013-05-19 09:00:00
7:00 PM,41.0,33.8,76,30.04,6.2,West,5.8,-,N/A,,Unknown,280,2013-05-19 09:00:00
7:30 PM,42.8,33.8,70,30.04,6.2,North,6.9,-,N/A,,Unknown,350,2013-05-19 09:30:00
8:00 PM,41.0,35.6,81,30.04,6.2,NW,5.8,-,N/A,,Unknown,320,2013-05-19 10:00:00
8:30 PM,39.2,33.8,81,30.04,6.2,Calm,Calm,-,N/A,,Unknown,0,2013-05-19 10:30:00
9:00 PM,37,33,82,30.07,,NNE,5.8,,,,,20,2013-05-19 11:00:00
9:00 PM,37.4,33.8,87,30.06,6.2,NNE,5.8,-,N/A,,Unknown,20,2013-05-19 11:00:00
9:30 PM,39.2,30.2,70,30.04,6.2,North,6.9,-,N/A,,Unknown,10,2013-05-19 11:30:00
10:00 PM,40,34,71,30.06,,NNE,5.8,,,,,20,2013-05-19 12:00:00
10:00 PM,39.2,33.8,81,30.06,6.2,NNE,5.8,-,N/A,,Unknown,20,2013-05-19 12:00:00
10:30 PM,39.2,33.8,81,30.04,6.2,North,5.8,-,N/A,,Unknown,360,2013-05-19 12:30:00
11:00 PM,33.8,26.6,75,30.04,6.2,Calm,Calm,-,N/A,,Unknown,0,2013-05-19 13:00:00
11:30 PM,32.0,28.4,87,30.04,6.2,South,4.6,-,N/A,,Unknown,170,2013-05-19 13:30:00